createdAt,value
2022-11-15T00:00:05.404Z,6.60
2022-11-15T00:01:57.560Z,6.50
2022-11-15T00:03:53.305Z,6.60
2022-11-15T00:05:45.241Z,6.50
2022-11-15T00:07:55.218Z,6.60
2022-11-15T00:09:47.858Z,6.70
2022-11-15T00:11:39.442Z,6.70
2022-11-15T00:13:32.563Z,6.70
2022-11-15T00:15:25.969Z,6.70
2022-11-15T00:17:17.668Z,6.70
2022-11-15T00:19:09.134Z,6.70
2022-11-15T00:21:07.414Z,6.70
2022-11-15T00:22:59.021Z,6.60
2022-11-15T00:24:50.583Z,6.70
2022-11-15T00:26:42.091Z,6.60
2022-11-15T00:28:33.704Z,6.60
2022-11-15T00:30:28.150Z,6.50
2022-11-15T00:32:19.487Z,6.50
2022-11-15T00:34:12.206Z,6.50
2022-11-15T00:36:05.681Z,6.40
2022-11-15T00:37:57.475Z,6.40
2022-11-15T00:39:48.903Z,6.50
2022-11-15T00:41:40.392Z,6.50
2022-11-15T00:43:32.218Z,6.60
2022-11-15T00:45:24.403Z,6.60
2022-11-15T00:47:17.400Z,6.70
2022-11-15T00:49:09.034Z,6.70
2022-11-15T00:51:00.549Z,6.60
2022-11-15T00:52:51.989Z,6.60
2022-11-15T00:54:44.021Z,6.40
2022-11-15T00:56:35.435Z,6.40
2022-11-15T00:58:26.926Z,6.30
2022-11-15T01:00:19.005Z,6.30
2022-11-15T01:02:10.876Z,6.20
2022-11-15T01:04:03.829Z,6.20
2022-11-15T01:05:55.383Z,6.20
2022-11-15T01:07:46.944Z,6.20
2022-11-15T01:09:38.392Z,6.20
2022-11-15T01:11:29.810Z,6.10
2022-11-15T01:13:21.396Z,5.90
2022-11-15T01:15:13.597Z,5.90
2022-11-15T01:17:05.382Z,5.90
2022-11-15T01:18:56.838Z,5.90
2022-11-15T01:20:49.603Z,6.00
2022-11-15T01:22:41.335Z,6.10
2022-11-15T01:24:33.541Z,6.20
2022-11-15T01:26:26.611Z,6.30
2022-11-15T01:28:17.895Z,6.40
2022-11-15T01:30:10.428Z,6.50
2022-11-15T01:32:02.159Z,6.60
2022-11-15T01:33:53.681Z,6.70
2022-11-15T01:35:45.039Z,6.70
2022-11-15T01:37:37.980Z,6.70
2022-11-15T01:39:29.877Z,6.80
2022-11-15T01:41:23.127Z,6.90
2022-11-15T01:43:25.823Z,6.90
2022-11-15T01:45:18.577Z,7.00
2022-11-15T01:47:13.837Z,7.10
2022-11-15T01:49:13.583Z,7.10
2022-11-15T01:51:11.250Z,7.10
2022-11-15T01:53:04.386Z,7.10
2022-11-15T01:55:01.915Z,7.10
2022-11-15T01:56:56.567Z,7.20
2022-11-15T01:58:48.548Z,7.30
2022-11-15T02:00:40.215Z,7.30
2022-11-15T02:02:32.259Z,7.30
2022-11-15T02:04:26.725Z,7.30
2022-11-15T02:06:18.272Z,7.30
2022-11-15T02:08:20.799Z,7.40
2022-11-15T02:10:15.979Z,7.50
2022-11-15T02:12:09.263Z,7.40
2022-11-15T02:14:03.151Z,7.40
2022-11-15T02:16:03.332Z,7.40
2022-11-15T02:18:09.426Z,7.30
2022-11-15T02:20:45.502Z,7.30
2022-11-15T02:22:53.705Z,7.20
2022-11-15T02:25:10.186Z,7.20
2022-11-15T02:27:46.608Z,7.20
2022-11-15T02:30:01.323Z,7.20
2022-11-15T02:32:01.731Z,7.20
2022-11-15T02:34:01.396Z,7.20
2022-11-15T02:35:59.717Z,7.10
2022-11-15T02:37:58.286Z,7.20
2022-11-15T02:39:56.601Z,7.10
2022-11-15T02:41:54.308Z,7.10
2022-11-15T02:43:58.916Z,7.10
2022-11-15T02:45:56.226Z,7.10
2022-11-15T02:47:53.794Z,7.10
2022-11-15T02:49:49.303Z,7.10
2022-11-15T02:51:40.696Z,7.00
2022-11-15T02:53:32.222Z,7.00
2022-11-15T02:55:34.919Z,7.00
2022-11-15T02:57:38.016Z,7.00
2022-11-15T03:00:04.559Z,7.00
2022-11-15T03:02:10.799Z,7.00
2022-11-15T03:04:17.121Z,7.00
2022-11-15T03:06:21.880Z,7.00
2022-11-15T03:08:23.623Z,7.00
2022-11-15T03:10:23.036Z,7.00
2022-11-15T03:12:21.805Z,7.10
2022-11-15T03:14:22.670Z,7.00
2022-11-15T03:16:21.120Z,7.00
2022-11-15T03:18:19.991Z,6.90
2022-11-15T03:20:16.319Z,6.90
2022-11-15T03:22:11.777Z,6.90
2022-11-15T03:24:07.494Z,6.90
2022-11-15T03:26:00.383Z,6.80
2022-11-15T03:27:55.185Z,6.80
2022-11-15T03:29:49.290Z,6.80
2022-11-15T03:31:50.499Z,6.70
2022-11-15T03:33:43.837Z,6.60
2022-11-15T03:35:42.289Z,6.50
2022-11-15T03:37:39.327Z,6.40
2022-11-15T03:39:31.669Z,6.40
2022-11-15T03:41:27.124Z,6.40
2022-11-15T03:43:27.118Z,6.30
2022-11-15T03:45:24.338Z,6.20
2022-11-15T03:47:21.944Z,6.20
2022-11-15T03:49:17.488Z,6.20
2022-11-15T03:51:10.674Z,6.20
2022-11-15T03:53:02.363Z,6.10
2022-11-15T03:54:57.017Z,6.10
2022-11-15T03:56:48.460Z,6.10
2022-11-15T03:58:39.846Z,6.10
2022-11-15T04:00:31.550Z,6.10
2022-11-15T04:02:22.880Z,6.10
2022-11-15T04:04:14.412Z,6.10
2022-11-15T04:06:06.344Z,6.00
2022-11-15T04:07:59.193Z,6.00
2022-11-15T04:10:06.460Z,6.00
2022-11-15T04:11:58.221Z,6.00
2022-11-15T04:13:49.709Z,6.00
2022-11-15T04:15:41.041Z,5.90
2022-11-15T04:17:31.532Z,5.90
2022-11-15T04:19:40.425Z,5.90
2022-11-15T04:21:49.353Z,5.90
2022-11-15T04:24:00.157Z,5.90
2022-11-15T04:25:52.667Z,5.90
2022-11-15T04:27:44.249Z,5.80
2022-11-15T04:29:37.757Z,5.80
2022-11-15T04:31:29.522Z,5.90
2022-11-15T04:33:21.699Z,5.80
2022-11-15T04:35:13.821Z,5.80
2022-11-15T04:37:13.269Z,5.90
2022-11-15T04:39:06.761Z,5.90
2022-11-15T04:40:58.266Z,5.90
2022-11-15T04:42:49.839Z,5.90
2022-11-15T04:44:41.496Z,5.90
2022-11-15T04:46:33.258Z,5.90
2022-11-15T04:48:24.969Z,5.80
2022-11-15T04:50:17.995Z,5.90
2022-11-15T04:52:09.691Z,5.80
2022-11-15T04:54:01.237Z,5.80
2022-11-15T04:55:54.070Z,5.70
2022-11-15T04:57:45.721Z,5.70
2022-11-15T04:59:37.356Z,5.70
2022-11-15T05:01:28.991Z,5.70
2022-11-15T05:03:38.194Z,5.70
2022-11-15T05:05:29.946Z,5.60
2022-11-15T05:07:21.414Z,5.60
2022-11-15T05:09:13.972Z,5.60
2022-11-15T05:11:07.232Z,5.60
2022-11-15T05:12:58.910Z,5.60
2022-11-15T05:14:50.612Z,5.60
2022-11-15T05:16:42.397Z,5.60
2022-11-15T05:18:33.762Z,5.60
2022-11-15T05:20:25.194Z,5.60
2022-11-15T05:22:16.735Z,5.60
2022-11-15T05:24:08.844Z,5.60
2022-11-15T05:26:06.413Z,5.50
2022-11-15T05:28:01.765Z,5.50
2022-11-15T05:29:53.478Z,5.50
2022-11-15T05:31:44.859Z,5.50
2022-11-15T05:33:37.391Z,5.50
2022-11-15T05:35:33.760Z,5.50
2022-11-15T05:37:25.105Z,5.50
2022-11-15T05:39:16.741Z,5.50
2022-11-15T05:41:08.631Z,5.50
2022-11-15T05:43:04.167Z,5.50
2022-11-15T05:44:55.824Z,5.50
2022-11-15T05:46:48.555Z,5.50
2022-11-15T05:48:43.841Z,5.50
2022-11-15T05:50:37.650Z,5.60
2022-11-15T05:52:33.538Z,5.60
2022-11-15T05:54:26.835Z,5.60
2022-11-15T05:56:18.515Z,5.60
2022-11-15T05:58:11.962Z,5.60
2022-11-15T06:00:05.005Z,5.60
2022-11-15T06:01:56.844Z,5.60
2022-11-15T06:03:48.419Z,5.50
2022-11-15T06:05:40.032Z,5.50
2022-11-15T06:07:31.935Z,5.50
2022-11-15T06:09:23.576Z,5.50
2022-11-15T06:11:15.110Z,5.40
2022-11-15T06:13:07.172Z,5.40
2022-11-15T06:15:00.257Z,5.40
2022-11-15T06:16:51.829Z,5.40
2022-11-15T06:18:43.293Z,5.40
2022-11-15T06:20:34.797Z,5.50
2022-11-15T06:22:26.313Z,5.40
2022-11-15T06:24:17.766Z,5.50
2022-11-15T06:26:09.201Z,5.50
2022-11-15T06:28:01.391Z,5.50
2022-11-15T06:29:52.736Z,5.40
2022-11-15T06:31:45.625Z,5.50
2022-11-15T06:33:37.238Z,5.50
2022-11-15T06:35:28.777Z,5.50
2022-11-15T06:37:20.669Z,5.50
2022-11-15T06:39:12.326Z,5.50
2022-11-15T06:41:05.209Z,5.50
2022-11-15T06:43:00.054Z,5.60
2022-11-15T06:44:51.937Z,5.70
2022-11-15T06:46:44.828Z,5.70
2022-11-15T06:48:37.056Z,5.80
2022-11-15T06:50:28.489Z,5.90
2022-11-15T06:52:20.542Z,6.00
2022-11-15T06:54:12.020Z,6.00
2022-11-15T06:56:04.249Z,6.10
2022-11-15T06:57:56.217Z,6.20
2022-11-15T06:59:47.888Z,6.30
2022-11-15T07:01:39.280Z,6.40
2022-11-15T07:03:32.507Z,6.60
2022-11-15T07:05:24.469Z,6.60
2022-11-15T07:07:16.058Z,6.70
2022-11-15T07:09:07.929Z,6.80
2022-11-15T07:11:01.484Z,6.90
2022-11-15T07:12:53.345Z,7.10
2022-11-15T07:14:45.114Z,7.20
2022-11-15T07:16:37.874Z,7.60
2022-11-15T07:18:31.270Z,7.90
2022-11-15T07:20:23.046Z,8.10
2022-11-15T07:22:14.410Z,8.10
2022-11-15T07:24:06.507Z,8.10
2022-11-15T07:26:00.089Z,8.30
2022-11-15T07:27:57.250Z,8.70
2022-11-15T07:29:48.892Z,9.00
2022-11-15T07:31:40.260Z,9.30
2022-11-15T07:33:33.629Z,9.50
2022-11-15T07:35:26.692Z,9.50
2022-11-15T07:37:18.840Z,9.30
2022-11-15T07:39:10.529Z,9.10
2022-11-15T07:41:03.534Z,9.10
2022-11-15T07:42:59.355Z,9.10
2022-11-15T07:44:50.888Z,9.10
2022-11-15T07:46:42.333Z,9.30
2022-11-15T07:48:43.933Z,9.30
2022-11-15T07:50:36.419Z,9.50
2022-11-15T07:52:27.667Z,9.60
2022-11-15T07:54:19.128Z,9.70
2022-11-15T07:56:11.137Z,9.70
2022-11-15T07:58:04.276Z,9.70
2022-11-15T07:59:56.162Z,9.80
2022-11-15T08:01:47.695Z,9.80
2022-11-15T08:03:41.014Z,9.80
2022-11-15T08:05:33.013Z,9.90
2022-11-15T08:07:25.103Z,10.10
2022-11-15T08:09:16.762Z,10.20
2022-11-15T08:11:08.205Z,10.50
2022-11-15T08:13:00.765Z,10.60
2022-11-15T08:14:52.402Z,10.60
2022-11-15T08:16:44.023Z,10.70
2022-11-15T08:18:35.531Z,11.00
2022-11-15T08:20:30.658Z,11.10
2022-11-15T08:22:22.242Z,11.20
2022-11-15T08:24:13.832Z,11.40
2022-11-15T08:26:06.230Z,11.50
2022-11-15T08:27:59.939Z,11.60
2022-11-15T08:29:56.787Z,11.90
2022-11-15T08:31:50.866Z,12.10
2022-11-15T08:33:42.496Z,11.90
2022-11-15T08:35:35.397Z,12.00
2022-11-15T08:37:26.708Z,12.20
2022-11-15T08:39:18.175Z,12.20
2022-11-15T08:41:13.335Z,12.20
2022-11-15T08:43:04.901Z,12.20
2022-11-15T08:44:56.767Z,12.30
2022-11-15T08:46:48.275Z,12.30
2022-11-15T08:48:39.703Z,12.60
2022-11-15T08:50:31.075Z,12.90
2022-11-15T08:52:23.864Z,13.30
2022-11-15T08:54:15.842Z,13.30
2022-11-15T08:56:09.945Z,13.30
2022-11-15T08:58:01.723Z,13.40
2022-11-15T08:59:53.231Z,13.30
2022-11-15T09:01:44.785Z,13.50
2022-11-15T09:03:36.690Z,13.40
2022-11-15T09:05:28.562Z,13.40
2022-11-15T09:07:20.180Z,13.40
2022-11-15T09:09:13.304Z,13.20
2022-11-15T09:11:05.821Z,12.90
2022-11-15T09:12:58.996Z,12.90
2022-11-15T09:14:51.325Z,12.80
2022-11-15T09:16:42.860Z,13.00
2022-11-15T09:18:34.769Z,13.00
2022-11-15T09:29:49.518Z,12.80
2022-11-15T09:31:40.859Z,12.70
2022-11-15T09:33:33.131Z,12.80
2022-11-15T09:35:24.952Z,12.80
2022-11-15T09:37:16.567Z,12.80
2022-11-15T09:39:07.975Z,12.80
2022-11-15T09:41:19.215Z,12.80
2022-11-15T09:43:28.523Z,12.50
2022-11-15T09:45:25.700Z,12.50
2022-11-15T09:47:43.251Z,12.70
2022-11-15T09:49:32.867Z,12.80
2022-11-15T09:51:27.443Z,12.80
2022-11-15T09:54:53.911Z,12.80
2022-11-15T09:56:32.554Z,13.00
2022-11-15T09:58:17.896Z,13.00
2022-11-15T10:00:23.737Z,13.20
2022-11-15T10:10:06.381Z,13.30
2022-11-15T10:26:19.131Z,13.60
2022-11-15T10:28:00.076Z,14.70
2022-11-15T10:29:33.106Z,14.50
2022-11-15T10:31:24.289Z,14.50
2022-11-15T10:32:57.342Z,14.50
2022-11-15T10:34:30.387Z,14.50
2022-11-15T10:36:24.802Z,14.40
2022-11-15T10:38:08.447Z,14.50
2022-11-15T10:39:41.713Z,14.50
2022-11-15T10:41:14.709Z,14.50
2022-11-15T10:42:48.063Z,14.50
2022-11-15T10:44:28.503Z,14.60
2022-11-15T10:46:45.172Z,14.60
2022-11-15T10:48:25.656Z,14.20
2022-11-15T10:50:04.902Z,13.70
2022-11-15T10:51:43.838Z,13.60
2022-11-15T10:53:22.817Z,14.00
2022-11-15T10:54:59.875Z,14.30
2022-11-15T10:56:32.977Z,14.40
2022-11-15T10:58:08.019Z,14.70
2022-11-15T10:59:47.882Z,14.80
2022-11-15T11:01:24.165Z,14.70
2022-11-15T11:03:02.080Z,14.80
2022-11-15T11:04:52.194Z,15.20
2022-11-15T11:06:25.249Z,15.50
2022-11-15T11:08:00.396Z,15.80
2022-11-15T11:09:36.449Z,15.80
2022-11-15T11:11:11.181Z,15.70
2022-11-15T11:12:44.225Z,15.90
2022-11-15T11:14:24.057Z,15.80
2022-11-15T11:16:23.766Z,15.60
2022-11-15T11:18:06.482Z,15.10
2022-11-15T11:20:02.646Z,14.90
2022-11-15T11:21:45.797Z,14.70
2022-11-15T11:23:34.637Z,14.90
2022-11-15T11:25:20.703Z,15.00
2022-11-15T11:27:08.656Z,14.80
2022-11-15T11:28:50.634Z,14.60
2022-11-15T11:30:30.733Z,14.70
2022-11-15T11:32:25.047Z,14.90
2022-11-15T11:34:06.029Z,14.70
2022-11-15T11:35:48.151Z,14.40
2022-11-15T11:37:28.449Z,14.00
2022-11-15T11:39:19.112Z,14.20
2022-11-15T11:41:02.486Z,14.50
2022-11-15T11:42:46.051Z,14.30
2022-11-15T11:44:32.663Z,14.00
2022-11-15T11:46:24.659Z,14.20
2022-11-15T11:48:12.685Z,14.20
2022-11-15T11:49:51.479Z,14.20
2022-11-15T11:51:31.338Z,14.30
2022-11-15T11:53:10.458Z,14.40
2022-11-15T11:54:52.311Z,14.30
2022-11-15T11:56:29.858Z,14.40
2022-11-15T11:58:12.153Z,14.30
2022-11-15T11:59:50.327Z,14.40
2022-11-15T12:01:26.977Z,14.50
2022-11-15T12:03:11.372Z,14.70
2022-11-15T12:04:47.498Z,14.80
2022-11-15T12:06:28.723Z,14.70
2022-11-15T12:08:11.354Z,14.50
2022-11-15T12:09:51.276Z,14.10
2022-11-15T12:11:30.367Z,14.20
2022-11-15T12:13:09.142Z,14.20
2022-11-15T12:14:47.868Z,14.30
2022-11-15T12:16:24.623Z,14.20
2022-11-15T12:17:58.673Z,13.90
2022-11-15T12:19:33.307Z,13.90
2022-11-15T12:21:10.190Z,13.80
2022-11-15T12:22:48.926Z,13.70
2022-11-15T12:24:26.578Z,13.80
2022-11-15T12:26:03.397Z,13.60
2022-11-15T12:27:41.231Z,13.50
2022-11-15T12:29:21.148Z,13.40
2022-11-15T12:31:03.150Z,13.40
2022-11-15T12:32:38.634Z,13.50
2022-11-15T12:34:39.984Z,13.60
2022-11-15T12:36:31.716Z,13.50
2022-11-15T12:38:05.404Z,13.50
2022-11-15T12:40:07.126Z,13.60
2022-11-15T12:41:41.491Z,13.50
2022-11-15T12:43:39.579Z,13.70
2022-11-15T12:45:28.349Z,13.80
2022-11-15T12:47:04.925Z,13.80
2022-11-15T12:48:59.795Z,13.80
2022-11-15T12:50:57.209Z,13.30
2022-11-15T12:52:30.256Z,12.90
2022-11-15T12:54:39.414Z,12.80
2022-11-15T12:56:24.714Z,12.70
2022-11-15T12:58:17.782Z,12.60
2022-11-15T12:59:52.607Z,12.60
2022-11-15T13:03:25.376Z,12.60
2022-11-15T13:05:37.084Z,12.40
2022-11-15T13:07:49.636Z,12.30
2022-11-15T13:09:52.874Z,12.20
2022-11-15T13:11:45.716Z,12.20
2022-11-15T13:13:46.599Z,12.20
2022-11-15T13:15:57.302Z,12.30
2022-11-15T13:17:40.702Z,12.60
2022-11-15T13:19:13.790Z,12.70
2022-11-15T13:20:47.378Z,12.70
2022-11-15T13:22:37.979Z,12.50
2022-11-15T13:24:17.807Z,12.30
2022-11-15T13:26:14.201Z,12.10
2022-11-15T13:27:49.322Z,12.00
2022-11-15T13:29:23.849Z,12.00
2022-11-15T13:30:58.863Z,11.90
2022-11-15T13:32:32.680Z,11.70
2022-11-15T13:34:50.575Z,11.60
2022-11-15T13:36:24.581Z,11.40
2022-11-15T13:37:58.753Z,11.40
2022-11-15T13:39:33.789Z,11.30
2022-11-15T13:41:19.782Z,11.20
2022-11-15T13:42:53.286Z,11.00
2022-11-15T13:44:29.940Z,11.00
2022-11-15T13:46:12.922Z,11.00
2022-11-15T13:47:45.971Z,11.00
2022-11-15T13:49:19.311Z,11.00
2022-11-15T13:50:54.196Z,11.00
2022-11-15T13:52:33.369Z,10.90
2022-11-15T13:54:16.132Z,10.70
2022-11-15T13:55:49.364Z,10.70
2022-11-15T13:57:25.465Z,10.50
2022-11-15T13:58:58.633Z,10.30
2022-11-15T14:00:39.684Z,10.30
2022-11-15T14:02:15.809Z,10.30
2022-11-15T14:03:54.331Z,10.10
2022-11-15T14:05:27.440Z,10.00
2022-11-15T14:07:03.809Z,9.80
2022-11-15T14:08:37.538Z,9.70
2022-11-15T14:10:29.439Z,9.50
2022-11-15T14:12:04.764Z,9.50
2022-11-15T14:13:38.103Z,9.40
2022-11-15T14:15:27.817Z,9.30
2022-11-15T14:17:02.863Z,9.20
2022-11-15T14:18:45.658Z,9.20
2022-11-15T14:20:31.835Z,9.10
2022-11-15T14:22:16.768Z,9.00
2022-11-15T14:23:51.555Z,9.00
2022-11-15T14:25:25.807Z,9.00
2022-11-15T14:26:58.826Z,9.00
2022-11-15T14:28:37.562Z,8.90
2022-11-15T14:30:16.018Z,8.90
2022-11-15T14:31:49.101Z,8.80
2022-11-15T14:33:26.147Z,8.80
2022-11-15T14:35:01.094Z,8.80
2022-11-15T14:36:34.087Z,8.70
2022-11-15T14:38:07.459Z,8.70
2022-11-15T14:39:40.546Z,8.60
2022-11-15T14:41:21.068Z,8.50
2022-11-15T14:42:54.094Z,8.50
2022-11-15T14:44:27.125Z,8.40
2022-11-15T14:46:00.232Z,8.40
2022-11-15T14:47:33.255Z,8.40
2022-11-15T14:49:07.682Z,8.30
2022-11-15T14:50:40.877Z,8.30
2022-11-15T14:52:32.706Z,8.20
2022-11-15T14:54:06.575Z,8.20
2022-11-15T14:55:39.731Z,8.10
2022-11-15T14:57:12.769Z,8.10
2022-11-15T14:58:45.875Z,8.10
2022-11-15T15:00:19.339Z,8.00
2022-11-15T15:01:52.344Z,8.00
2022-11-15T15:03:25.362Z,8.00
2022-11-15T15:05:02.080Z,7.90
2022-11-15T15:06:35.171Z,7.90
2022-11-15T15:08:08.910Z,7.80
2022-11-15T15:09:42.544Z,7.80
2022-11-15T15:11:20.018Z,7.80
2022-11-15T15:12:53.059Z,7.70
2022-11-15T15:14:26.144Z,7.70
2022-11-15T15:15:59.175Z,7.60
2022-11-15T15:17:32.196Z,7.60
2022-11-15T15:19:05.233Z,7.60
2022-11-15T15:20:41.606Z,7.50
2022-11-15T15:22:17.371Z,7.60
2022-11-15T15:23:50.814Z,7.40
2022-11-15T15:25:28.867Z,7.40
2022-11-15T15:27:01.898Z,7.30
2022-11-15T15:28:36.303Z,7.40
2022-11-15T15:30:10.939Z,7.40
2022-11-15T15:31:44.076Z,7.30
2022-11-15T15:33:17.128Z,7.30
2022-11-15T15:34:50.135Z,7.20
2022-11-15T15:36:24.519Z,7.20
2022-11-15T15:37:57.592Z,7.20
2022-11-15T15:39:30.600Z,7.10
2022-11-15T15:41:04.525Z,7.10
2022-11-15T15:42:37.563Z,7.10
2022-11-15T15:44:10.598Z,7.10
2022-11-15T15:45:45.844Z,7.00
2022-11-15T15:47:23.608Z,7.00
2022-11-15T15:48:56.644Z,7.00
2022-11-15T15:50:31.237Z,7.00
2022-11-15T15:52:05.636Z,7.00
2022-11-15T15:53:38.688Z,6.90
2022-11-15T15:55:11.767Z,6.90
2022-11-15T15:56:44.830Z,6.90
2022-11-15T15:58:17.851Z,6.90
2022-11-15T15:59:50.872Z,6.90
2022-11-15T16:01:23.951Z,6.80
2022-11-15T16:02:57.249Z,6.80
2022-11-15T16:04:30.551Z,6.80
2022-11-15T16:06:05.234Z,6.80
2022-11-15T16:07:40.587Z,6.80
2022-11-15T16:09:17.155Z,6.80
2022-11-15T16:10:51.151Z,6.70
2022-11-15T16:12:24.208Z,6.70
2022-11-15T16:13:57.226Z,6.60
2022-11-15T16:15:33.805Z,6.60
2022-11-15T16:17:06.852Z,6.70
2022-11-15T16:18:39.858Z,6.60
2022-11-15T16:20:28.715Z,6.60
2022-11-15T16:22:01.837Z,6.50
2022-11-15T16:23:36.218Z,6.50
2022-11-15T16:25:10.127Z,6.50
2022-11-15T16:26:43.204Z,6.50
2022-11-15T16:28:21.709Z,6.50
2022-11-15T16:29:54.760Z,6.50
2022-11-15T16:31:27.788Z,6.50
2022-11-15T16:33:01.196Z,6.40
2022-11-15T16:34:39.617Z,6.40
2022-11-15T16:36:26.914Z,6.40
2022-11-15T16:38:02.775Z,6.40
2022-11-15T16:39:37.210Z,6.40
2022-11-15T16:41:10.279Z,6.40
2022-11-15T16:42:43.299Z,6.30
2022-11-15T16:44:16.846Z,6.30
2022-11-15T16:45:51.201Z,6.30
2022-11-15T16:47:24.235Z,6.30
2022-11-15T16:48:57.482Z,6.30
2022-11-15T16:50:32.851Z,6.30
2022-11-15T16:52:05.889Z,6.20
2022-11-15T16:53:39.216Z,6.20
2022-11-15T16:55:13.621Z,6.20
2022-11-15T16:56:47.884Z,6.20
2022-11-15T16:58:20.928Z,6.20
2022-11-15T16:59:53.964Z,6.20
2022-11-15T17:01:28.588Z,6.20
2022-11-15T17:03:03.331Z,6.30
2022-11-15T17:04:36.363Z,6.20
2022-11-15T17:06:11.306Z,6.20
2022-11-15T17:07:45.531Z,6.20
2022-11-15T17:09:20.442Z,6.20
2022-11-15T17:10:54.917Z,6.20
2022-11-15T17:12:28.636Z,6.20
2022-11-15T17:14:01.677Z,6.10
2022-11-15T17:15:34.744Z,6.10
2022-11-15T17:17:07.767Z,6.10
2022-11-15T17:18:42.241Z,6.10
2022-11-15T17:20:16.877Z,6.10
2022-11-15T17:21:50.565Z,6.10
2022-11-15T17:23:23.613Z,6.00
2022-11-15T17:24:56.626Z,6.10
2022-11-15T17:26:33.950Z,6.10
2022-11-15T17:28:08.435Z,6.10
2022-11-15T17:29:41.518Z,6.00
2022-11-15T17:31:16.006Z,6.00
2022-11-15T17:32:49.755Z,6.00
2022-11-15T17:34:22.959Z,6.00
2022-11-15T17:35:59.782Z,6.00
2022-11-15T17:37:32.829Z,6.00
2022-11-15T17:39:06.438Z,6.00
2022-11-15T17:40:39.455Z,5.90
2022-11-15T17:42:13.842Z,5.90
2022-11-15T17:43:46.964Z,6.00
2022-11-15T17:45:19.994Z,5.90
2022-11-15T17:46:53.136Z,6.00
2022-11-15T17:48:26.436Z,6.00
2022-11-15T17:49:59.662Z,6.00
2022-11-15T17:51:32.724Z,5.90
2022-11-15T17:53:05.754Z,5.90
2022-11-15T17:54:38.781Z,5.90
2022-11-15T17:56:13.204Z,5.90
2022-11-15T17:57:47.582Z,5.90
2022-11-15T17:59:21.745Z,5.90
2022-11-15T18:00:54.949Z,5.90
2022-11-15T18:02:28.037Z,5.90
2022-11-15T18:04:02.266Z,5.90
2022-11-15T18:05:35.306Z,5.90
2022-11-15T18:07:08.387Z,5.80
2022-11-15T18:08:44.209Z,5.80
2022-11-15T18:10:17.654Z,5.80
2022-11-15T18:11:51.730Z,5.70
2022-11-15T18:13:26.152Z,5.70
2022-11-15T18:15:00.069Z,5.70
2022-11-15T18:16:35.750Z,5.70
2022-11-15T18:18:08.862Z,5.70
2022-11-15T18:19:41.867Z,5.70
2022-11-15T18:21:16.327Z,5.70
2022-11-15T18:22:49.323Z,5.70
2022-11-15T18:24:22.504Z,5.70
2022-11-15T18:25:55.537Z,5.70
2022-11-15T18:27:28.563Z,5.70
2022-11-15T18:29:06.247Z,5.70
2022-11-15T18:30:41.222Z,5.70
2022-11-15T18:32:17.591Z,5.70
2022-11-15T18:33:51.814Z,5.60
2022-11-15T18:35:24.846Z,5.60
2022-11-15T18:36:57.870Z,5.60
2022-11-15T18:38:31.571Z,5.60
2022-11-15T18:40:05.343Z,5.60
2022-11-15T18:41:38.374Z,5.50
2022-11-15T18:43:11.409Z,5.50
2022-11-15T18:44:45.868Z,5.50
2022-11-15T18:46:20.392Z,5.50
2022-11-15T18:47:53.417Z,5.50
2022-11-15T18:49:26.812Z,5.60
2022-11-15T18:51:05.326Z,5.50
2022-11-15T18:52:38.610Z,5.50
2022-11-15T18:54:13.351Z,5.50
2022-11-15T18:55:46.423Z,5.50
2022-11-15T18:57:19.462Z,5.50
2022-11-15T18:58:54.459Z,5.50
2022-11-15T19:00:28.850Z,5.40
2022-11-15T19:02:01.859Z,5.50
2022-11-15T19:03:36.923Z,5.40
2022-11-15T19:05:10.380Z,5.40
2022-11-15T19:06:45.360Z,5.40
2022-11-15T19:08:18.358Z,5.40
2022-11-15T19:09:51.838Z,5.40
2022-11-15T19:11:28.624Z,5.40
2022-11-15T19:13:01.655Z,5.40
2022-11-15T19:14:34.683Z,5.40
2022-11-15T19:16:11.008Z,5.50
2022-11-15T19:17:44.081Z,5.50
2022-11-15T19:19:19.500Z,5.50
2022-11-15T19:20:52.618Z,5.40
2022-11-15T19:22:25.664Z,5.40
2022-11-15T19:23:59.513Z,5.50
2022-11-15T19:25:32.528Z,5.40
2022-11-15T19:27:05.610Z,5.40
2022-11-15T19:28:38.660Z,5.40
2022-11-15T19:30:12.650Z,5.40
2022-11-15T19:31:48.490Z,5.40
2022-11-15T19:33:27.588Z,5.40
2022-11-15T19:35:01.196Z,5.40
2022-11-15T19:36:35.774Z,5.30
2022-11-15T19:38:08.783Z,5.40
2022-11-15T19:39:41.827Z,5.30
2022-11-15T19:41:16.411Z,5.30
2022-11-15T19:42:49.447Z,5.30
2022-11-15T19:44:22.760Z,5.40
2022-11-15T19:45:59.534Z,5.40
2022-11-15T19:47:36.582Z,5.30
2022-11-15T19:49:11.026Z,5.30
2022-11-15T19:50:44.377Z,5.30
2022-11-15T19:52:17.390Z,5.30
2022-11-15T19:53:51.421Z,5.30
2022-11-15T19:55:24.502Z,5.30
2022-11-15T19:56:57.651Z,5.30
2022-11-15T19:58:30.773Z,5.30
2022-11-15T20:00:07.421Z,5.20
2022-11-15T20:01:42.031Z,5.30
2022-11-15T20:03:16.695Z,5.30
2022-11-15T20:04:49.747Z,5.20
2022-11-15T20:06:25.043Z,5.20
2022-11-15T20:07:58.048Z,5.20
2022-11-15T20:09:31.085Z,5.20
2022-11-15T20:11:05.656Z,5.20
2022-11-15T20:12:39.039Z,5.30
2022-11-15T20:14:13.160Z,5.20
2022-11-15T20:15:46.337Z,5.20
2022-11-15T20:17:19.366Z,5.30
2022-11-15T20:18:54.343Z,5.30
2022-11-15T20:20:27.378Z,5.30
2022-11-15T20:22:00.409Z,5.30
2022-11-15T20:23:33.508Z,5.30
2022-11-15T20:25:07.000Z,5.20
2022-11-15T20:26:40.069Z,5.20
2022-11-15T20:28:17.654Z,5.30
2022-11-15T20:29:51.858Z,5.30
2022-11-15T20:31:24.855Z,5.30
2022-11-15T20:32:58.065Z,5.30
2022-11-15T20:34:32.698Z,5.30
2022-11-15T20:36:06.595Z,5.20
2022-11-15T20:37:39.796Z,5.20
2022-11-15T20:39:12.876Z,5.30
2022-11-15T20:40:46.773Z,5.30
2022-11-15T20:42:19.815Z,5.30
2022-11-15T20:43:52.844Z,5.30
2022-11-15T20:45:25.922Z,5.30
2022-11-15T20:46:58.958Z,5.30
2022-11-15T20:48:32.455Z,5.30
2022-11-15T20:50:35.552Z,5.40
2022-11-15T20:52:01.080Z,5.40
2022-11-15T20:53:34.873Z,5.40
2022-11-15T20:55:08.761Z,5.40
2022-11-15T20:56:41.820Z,5.30
2022-11-15T20:58:15.548Z,5.30
2022-11-15T20:59:48.861Z,5.30
2022-11-15T21:01:24.372Z,5.30
2022-11-15T21:02:57.538Z,5.30
2022-11-15T21:04:30.606Z,5.30
2022-11-15T21:06:05.297Z,5.20
2022-11-15T21:07:38.492Z,5.30
2022-11-15T21:09:29.889Z,5.20
2022-11-15T21:11:20.200Z,5.20
2022-11-15T21:12:53.438Z,5.30
2022-11-15T21:14:26.544Z,5.20
2022-11-15T21:15:59.572Z,5.20
2022-11-15T21:17:32.603Z,5.20
2022-11-15T21:19:06.636Z,5.20
2022-11-15T21:20:39.755Z,5.20
2022-11-15T21:22:15.767Z,5.20
2022-11-15T21:23:48.842Z,5.20
2022-11-15T21:25:21.981Z,5.20
2022-11-15T21:26:55.575Z,5.20
2022-11-15T21:28:28.626Z,5.20
2022-11-15T21:30:01.639Z,5.10
2022-11-15T21:31:34.801Z,5.20
2022-11-15T21:33:07.812Z,5.10
2022-11-15T21:34:40.894Z,5.10
2022-11-15T21:36:13.922Z,5.10
2022-11-15T21:37:53.310Z,5.10
2022-11-15T21:39:29.333Z,5.10
2022-11-15T21:41:04.583Z,5.10
2022-11-15T21:42:37.686Z,5.00
2022-11-15T21:44:10.844Z,5.00
2022-11-15T21:45:43.998Z,5.00
2022-11-15T21:47:17.064Z,5.00
2022-11-15T21:48:50.113Z,4.90
2022-11-15T21:50:23.152Z,4.90
2022-11-15T21:51:56.162Z,5.00
2022-11-15T21:53:31.656Z,5.00
2022-11-15T21:55:04.983Z,5.00
2022-11-15T21:56:38.105Z,4.90
2022-11-15T21:58:11.128Z,4.80
2022-11-15T21:59:58.139Z,4.80
2022-11-15T22:01:48.494Z,4.70
2022-11-15T22:03:21.507Z,4.70
2022-11-15T22:04:54.512Z,4.60
2022-11-15T22:06:27.562Z,4.60
2022-11-15T22:08:00.607Z,4.50
2022-11-15T22:09:35.002Z,4.50
2022-11-15T22:11:08.052Z,4.50
2022-11-15T22:12:41.057Z,4.50
2022-11-15T22:14:14.118Z,4.50
2022-11-15T22:15:47.359Z,4.50
2022-11-15T22:17:20.552Z,4.50
2022-11-15T22:18:53.008Z,4.40
2022-11-15T22:22:19.445Z,4.40
2022-11-15T22:23:53.352Z,4.30
2022-11-15T22:25:27.944Z,4.30
2022-11-15T22:27:01.130Z,4.30
2022-11-15T22:28:34.696Z,4.30
2022-11-15T22:30:09.247Z,4.30
2022-11-15T22:31:42.507Z,4.30
2022-11-15T22:33:16.380Z,4.30
2022-11-15T22:34:49.571Z,4.30
2022-11-15T22:36:22.778Z,4.40
2022-11-15T22:37:56.011Z,4.40
2022-11-15T22:39:29.181Z,4.40
2022-11-15T22:41:04.312Z,4.40
2022-11-15T22:42:37.494Z,4.40
2022-11-15T22:44:10.680Z,4.40
2022-11-15T22:45:49.118Z,4.30
2022-11-15T22:47:22.330Z,4.30
2022-11-15T22:48:58.579Z,4.40
2022-11-15T22:50:34.020Z,4.40
2022-11-15T22:52:07.216Z,4.50
2022-11-15T22:53:40.383Z,4.60
2022-11-15T22:55:13.598Z,4.60
2022-11-15T22:56:48.222Z,4.60
2022-11-15T22:58:22.028Z,4.70
2022-11-15T22:59:55.298Z,4.70
2022-11-15T23:01:28.482Z,4.70
2022-11-15T23:03:01.876Z,4.60
2022-11-15T23:04:35.111Z,4.60
2022-11-15T23:06:09.940Z,4.60
2022-11-15T23:07:43.135Z,4.60
2022-11-15T23:09:16.421Z,4.50
2022-11-15T23:11:07.427Z,4.50
2022-11-15T23:12:59.230Z,4.50
2022-11-15T23:14:32.426Z,4.50
2022-11-15T23:16:34.190Z,4.50
2022-11-15T23:18:07.477Z,4.50
2022-11-15T23:19:40.702Z,4.50
2022-11-15T23:21:16.572Z,4.50
2022-11-15T23:22:48.945Z,4.50
2022-11-15T23:24:21.960Z,4.50
2022-11-15T23:26:03.935Z,4.50